Time;durP1;ratioP1;P1;durP2;ratioP2;P2;SDS_P1;SDS_P2;PMS_P1;PMS_P2;Temp;Humidity;BMP_temperature;BMP_pressure;BME280_temperature;BME280_humidity;BME280_pressure;Samples;Min_cycle;Max_cycle;Signal;HPM_P1;HPM_P2
2022/07/21 00:00:28;;;;;;;3.53;2.00;;;;;;;18.20;61.25;94887.38;5058600;28;20203;-74
2022/07/21 00:02:56;;;;;;;4.13;1.90;;;;;;;18.23;61.03;94889.38;5053998;28;20261;-74
2022/07/21 00:05:23;;;;;;;2.85;1.40;;;;;;;18.29;60.04;94890.66;5052306;28;20273;-74
2022/07/21 00:07:50;;;;;;;2.80;1.98;;;;;;;18.29;59.99;94896.16;5062321;28;20642;-74
2022/07/21 00:10:18;;;;;;;2.58;1.63;;;;;;;17.76;61.75;94889.84;5058200;28;20231;-74
2022/07/21 00:12:45;;;;;;;2.95;1.52;;;;;;;17.65;62.57;94894.34;5055272;28;20712;-74
2022/07/21 00:15:14;;;;;;;2.63;1.52;;;;;;;17.53;62.76;94898.03;5058424;28;20258;-74
2022/07/21 00:17:41;;;;;;;3.75;1.70;;;;;;;17.49;63.89;94891.72;5061371;28;20223;-74
2022/07/21 00:20:10;;;;;;;3.88;1.77;;;;;;;17.54;63.04;94888.66;5058763;28;20203;-74
2022/07/21 00:22:38;;;;;;;1.98;1.73;;;;;;;17.58;62.58;94896.94;5053423;28;20294;-74
2022/07/21 00:25:05;;;;;;;4.03;2.13;;;;;;;17.53;62.88;94898.03;5061427;28;20915;-74
2022/07/21 00:27:32;;;;;;;3.13;1.60;;;;;;;17.77;61.74;94903.16;5067685;28;20200;-75
2022/07/21 00:29:59;;;;;;;2.03;1.58;;;;;;;17.72;61.92;94911.69;5051821;28;20692;-73
2022/07/21 00:32:27;;;;;;;2.78;1.83;;;;;;;17.80;61.73;94898.09;5065297;28;20666;-73
2022/07/21 00:34:54;;;;;;;2.80;1.67;;;;;;;17.82;61.95;94898.53;5052181;28;20726;-73
2022/07/21 00:37:23;;;;;;;3.13;1.75;;;;;;;17.63;63.58;94899.38;5070973;28;20565;-73
2022/07/21 00:39:50;;;;;;;2.70;1.60;;;;;;;17.52;63.69;94890.94;5059833;28;20207;-73
2022/07/21 00:42:22;;;;;;;3.20;1.65;;;;;;;17.42;63.91;94899.78;5057809;28;20203;-73
2022/07/21 00:44:48;;;;;;;1.92;1.58;;;;;;;17.41;63.97;94903.69;5067585;28;20203;-73
2022/07/21 00:47:19;;;;;;;2.45;1.67;;;;;;;17.46;63.91;94897.91;5085714;28;20733;-73
2022/07/21 00:49:48;;;;;;;2.90;1.50;;;;;;;17.38;63.88;94907.94;5059364;28;20196;-75
2022/07/21 00:52:15;;;;;;;3.88;1.67;;;;;;;17.44;63.54;94905.69;5063658;28;20211;-73
2022/07/21 00:54:42;;;;;;;3.22;1.98;;;;;;;17.46;63.81;94902.59;5052424;28;20764;-73
2022/07/21 00:57:09;;;;;;;2.47;1.75;;;;;;;17.49;63.37;94897.19;5061175;28;20608;-73
2022/07/21 00:59:36;;;;;;;4.75;1.92;;;;;;;17.52;63.60;94895.66;5056952;28;20287;-73
2022/07/21 01:02:04;;;;;;;3.05;1.77;;;;;;;17.60;63.90;94900.09;5061240;28;20207;-73
2022/07/21 01:04:30;;;;;;;2.65;1.65;;;;;;;17.53;64.27;94897.22;5058952;28;20654;-73
2022/07/21 01:07:02;;;;;;;6.50;2.03;;;;;;;17.50;64.45;94893.25;5063636;28;20615;-73
2022/07/21 01:09:28;;;;;;;3.08;1.85;;;;;;;17.40;64.44;94883.72;5065864;28;20267;-73
2022/07/21 01:11:56;;;;;;;2.47;1.83;;;;;;;17.46;63.72;94886.97;5062095;28;20235;-73
2022/07/21 01:14:23;;;;;;;2.58;1.50;;;;;;;17.48;63.37;94879.16;5058238;28;20273;-73
2022/07/21 01:16:50;;;;;;;2.00;1.70;;;;;;;17.52;63.94;94880.00;5062153;28;20250;-73
2022/07/21 01:19:17;;;;;;;4.72;1.80;;;;;;;17.46;64.55;94880.69;5065647;28;20204;-73
2022/07/21 01:21:48;;;;;;;3.05;1.70;;;;;;;17.47;65.12;94877.59;5062739;28;20252;-73
2022/07/21 01:24:16;;;;;;;3.30;1.58;;;;;;;17.35;65.52;94875.81;5058397;28;20199;-73
2022/07/21 01:26:47;;;;;;;3.50;1.75;;;;;;;17.31;64.72;94868.69;5060243;28;20239;-73
2022/07/21 01:29:14;;;;;;;2.17;1.90;;;;;;;17.41;64.75;94873.56;5065385;28;20203;-73
2022/07/21 01:31:43;;;;;;;3.78;1.73;;;;;;;17.38;65.01;94877.81;5063530;28;20252;-74
2022/07/21 01:34:11;;;;;;;2.15;1.67;;;;;;;17.38;64.49;94877.00;5058572;28;20226;-73
2022/07/21 01:36:38;;;;;;;3.75;2.08;;;;;;;17.31;64.62;94863.22;5059213;28;20207;-73
2022/07/21 01:41:52;;;;;;;2.05;1.60;;;;;;;17.31;64.95;94869.47;5055286;28;20210;-73
2022/07/21 01:44:19;;;;;;;5.20;2.00;;;;;;;17.39;64.83;94864.91;5059963;28;20250;-73
2022/07/21 01:46:48;;;;;;;3.58;1.80;;;;;;;17.28;65.32;94869.41;5066345;28;20200;-73
2022/07/21 01:49:17;;;;;;;2.20;2.00;;;;;;;17.15;65.68;94865.25;5061849;28;20723;-73
2022/07/21 01:51:44;;;;;;;5.35;1.77;;;;;;;17.21;64.64;94863.81;5057546;28;20234;-75
2022/07/21 01:54:13;;;;;;;2.47;1.80;;;;;;;17.24;65.27;94868.53;5060541;28;20216;-73
2022/07/21 01:56:40;;;;;;;2.60;1.73;;;;;;;17.09;65.65;94863.97;5065223;28;20290;-74
2022/07/21 01:59:08;;;;;;;3.75;2.38;;;;;;;17.13;65.28;94867.56;5062871;28;20727;-75
2022/07/21 02:01:35;;;;;;;2.95;2.00;;;;;;;17.07;64.97;94858.09;5058413;28;20268;-75
2022/07/21 02:04:05;;;;;;;3.45;2.03;;;;;;;17.00;65.59;94870.47;5058911;28;20732;-74
2022/07/21 02:06:33;;;;;;;1.77;1.55;;;;;;;16.88;65.42;94865.16;5064365;28;20212;-74
2022/07/21 02:09:00;;;;;;;2.83;2.00;;;;;;;16.88;64.96;94867.88;5064218;28;20228;-74
2022/07/21 02:11:28;;;;;;;5.55;1.92;;;;;;;17.00;64.94;94870.47;5051302;28;20228;-74
2022/07/21 02:13:55;;;;;;;8.07;2.17;;;;;;;17.01;65.00;94869.31;5064571;28;20233;-74
2022/07/21 02:16:22;;;;;;;1.80;1.70;;;;;;;17.00;64.91;94865.00;5050890;28;20219;-74
2022/07/21 02:18:49;;;;;;;2.35;2.08;;;;;;;17.08;65.02;94871.41;5051356;28;20215;-74
2022/07/21 02:21:16;;;;;;;2.00;1.60;;;;;;;17.05;65.79;94872.91;5051174;28;20253;-74
2022/07/21 02:23:43;;;;;;;2.25;1.95;;;;;;;17.05;66.04;94867.44;5051219;28;20203;-74
2022/07/21 02:26:10;;;;;;;2.80;1.90;;;;;;;17.01;66.25;94869.31;5050856;28;20246;-75
2022/07/21 02:28:39;;;;;;;3.90;1.80;;;;;;;16.99;66.60;94868.09;5051103;28;20196;-74
2022/07/21 02:31:06;;;;;;;2.45;1.80;;;;;;;16.87;66.89;94863.56;5050807;28;20274;-74
2022/07/21 02:33:35;;;;;;;3.72;2.42;;;;;;;16.80;66.87;94863.44;5050307;28;20224;-74
2022/07/21 02:36:02;;;;;;;2.88;2.13;;;;;;;16.83;66.46;94859.97;5050799;28;20605;-74
2022/07/21 02:38:28;;;;;;;3.83;1.90;;;;;;;16.83;66.45;94859.16;5066389;28;20604;-74
2022/07/21 02:40:55;;;;;;;3.13;2.13;;;;;;;16.81;66.28;94862.25;5062171;28;20208;-74
2022/07/21 02:43:22;;;;;;;4.82;2.15;;;;;;;16.93;65.44;94864.88;5058755;28;20245;-74
2022/07/21 02:45:50;;;;;;;1.98;1.55;;;;;;;16.96;65.23;94858.66;5080025;28;20271;-74
2022/07/21 02:48:17;;;;;;;3.13;2.17;;;;;;;16.93;65.94;94858.59;5070935;28;20298;-74
2022/07/21 02:50:45;;;;;;;4.60;1.98;;;;;;;16.85;66.02;94851.38;5059982;28;20743;-74
2022/07/21 02:53:14;;;;;;;2.85;1.85;;;;;;;16.85;66.29;94862.34;5057332;28;20209;-74
2022/07/21 02:55:41;;;;;;;2.30;1.65;;;;;;;16.84;66.47;94858.81;5060427;28;20213;-74
2022/07/21 02:58:11;;;;;;;7.45;2.13;;;;;;;16.79;66.33;94859.13;5053722;28;20196;-74
2022/07/21 03:00:40;;;;;;;2.20;1.77;;;;;;;16.78;66.05;94852.06;5059416;28;20907;-74
2022/07/21 03:03:10;;;;;;;3.03;1.92;;;;;;;16.79;66.14;94859.13;5054583;28;20629;-74
2022/07/21 03:05:38;;;;;;;1.55;1.45;;;;;;;16.82;66.01;94857.59;5058160;28;20243;-74
2022/07/21 03:08:05;;;;;;;2.10;1.60;;;;;;;16.83;66.30;94859.97;5055140;28;20222;-74
2022/07/21 03:10:32;;;;;;;3.10;2.05;;;;;;;16.89;66.23;94863.22;5057693;28;20733;-74
2022/07/21 03:12:59;;;;;;;3.20;2.25;;;;;;;16.95;64.76;94861.75;5063909;28;20235;-74
2022/07/21 03:15:26;;;;;;;3.55;1.85;;;;;;;17.03;65.11;94864.28;5061888;28;20210;-74
2022/07/21 03:17:53;;;;;;;2.70;2.22;;;;;;;17.13;65.27;94867.56;5056300;28;20294;-74
2022/07/21 03:20:23;;;;;;;7.07;1.90;;;;;;;17.38;64.38;94868.78;5057685;28;20203;-74
2022/07/21 03:22:50;;;;;;;1.83;1.70;;;;;;;17.75;63.01;94861.66;5055853;28;20206;-74
2022/07/21 03:25:17;;;;;;;3.08;2.05;;;;;;;18.29;61.94;94870.66;5056256;28;20219;-74
2022/07/21 03:27:44;;;;;;;3.50;2.08;;;;;;;18.45;61.42;94861.09;5056030;28;20282;-74
2022/07/21 03:30:12;;;;;;;3.95;2.70;;;;;;;18.78;60.14;94862.31;5056635;28;20207;-73
2022/07/21 03:32:39;;;;;;;4.07;2.60;;;;;;;19.29;58.59;94864.44;5056436;28;20238;-74
2022/07/21 03:35:10;;;;;;;3.25;2.35;;;;;;;20.03;57.08;94859.63;5056324;28;20215;-73
2022/07/21 03:37:43;;;;;;;4.38;1.83;;;;;;;20.82;54.47;94860.88;5069684;28;20605;-73
2022/07/21 03:40:11;;;;;;;3.42;2.30;;;;;;;21.68;52.74;94859.97;5057573;28;20568;-74
2022/07/21 03:42:38;;;;;;;2.88;2.10;;;;;;;22.33;50.76;94858.78;5060176;28;20686;-74
2022/07/21 03:45:06;;;;;;;3.25;2.05;;;;;;;22.42;50.29;94852.81;5066731;28;20696;-73
2022/07/21 03:47:33;;;;;;;2.72;1.92;;;;;;;22.78;48.84;94848.03;5060115;28;20203;-73
2022/07/21 03:50:00;;;;;;;2.10;1.80;;;;;;;22.80;48.32;94851.97;5063288;28;20207;-74
2022/07/21 03:52:27;;;;;;;5.60;2.50;;;;;;;23.25;47.69;94846.63;5059861;28;20299;-74
2022/07/21 03:55:07;;;;;;;4.68;2.50;;;;;;;23.80;46.02;94855.00;5056661;28;20284;-74
2022/07/21 03:57:36;;;;;;;3.50;2.97;;;;;;;24.95;43.96;94852.75;5057764;28;20196;-74
2022/07/21 04:00:05;;;;;;;3.10;2.65;;;;;;;25.11;43.68;94858.50;5066056;28;20306;-74
2022/07/21 04:02:32;;;;;;;4.78;2.80;;;;;;;25.75;42.25;94852.09;5066499;28;20202;-74
2022/07/21 04:04:59;;;;;;;3.05;2.45;;;;;;;25.71;42.32;94851.34;5060433;28;20206;-74
2022/07/21 04:07:25;;;;;;;3.97;2.70;;;;;;;25.90;41.53;94853.44;5060368;28;20204;-74
2022/07/21 04:09:52;;;;;;;3.50;2.47;;;;;;;25.75;41.63;94852.88;5060323;28;20276;-74
2022/07/21 04:12:20;;;;;;;3.65;2.58;;;;;;;26.00;41.12;94852.47;5071818;28;20593;-74
2022/07/21 04:14:47;;;;;;;5.72;2.45;;;;;;;26.30;40.82;94848.84;5053369;28;20206;-75
2022/07/21 04:17:14;;;;;;;3.47;2.95;;;;;;;26.61;40.17;94852.25;5053266;28;20203;-74
2022/07/21 04:19:41;;;;;;;3.72;2.63;;;;;;;26.86;39.80;94851.78;5053416;28;20222;-75
2022/07/21 04:22:08;;;;;;;3.30;2.63;;;;;;;26.96;39.81;94850.00;5053591;28;20246;-75
2022/07/21 04:24:34;;;;;;;4.00;3.08;;;;;;;27.87;38.03;94844.47;5052946;28;20682;-75
2022/07/21 04:27:01;;;;;;;3.85;3.05;;;;;;;27.86;37.82;94844.91;5053091;28;20296;-75
2022/07/21 04:29:29;;;;;;;3.30;2.53;;;;;;;26.95;38.72;94848.44;5053398;28;20204;-75
2022/07/21 04:31:56;;;;;;;6.22;3.03;;;;;;;27.00;38.09;94850.72;5052787;28;20238;-75
2022/07/21 04:34:23;;;;;;;5.40;2.92;;;;;;;27.22;36.99;94846.28;5053186;28;20203;-74
2022/07/21 04:36:50;;;;;;;4.20;3.00;;;;;;;26.28;39.23;94861.53;5054148;28;20212;-75
2022/07/21 04:39:16;;;;;;;3.40;2.80;;;;;;;26.97;38.19;94857.16;5073039;28;20198;-75
2022/07/21 04:41:43;;;;;;;5.22;2.65;;;;;;;27.05;37.80;94858.59;5059910;28;20200;-75
2022/07/21 04:44:10;;;;;;;4.65;2.70;;;;;;;27.99;36.67;94856.94;5064780;28;20620;-75
2022/07/21 04:46:38;;;;;;;5.70;3.00;;;;;;;27.82;36.91;94849.78;5071019;28;20199;-75
2022/07/21 04:49:05;;;;;;;4.90;2.90;;;;;;;28.87;35.25;94858.72;5062316;28;20194;-75
2022/07/21 04:51:32;;;;;;;3.10;2.80;;;;;;;30.16;33.82;94854.50;5059218;28;20639;-75
2022/07/21 04:53:59;;;;;;;4.32;3.08;;;;;;;30.20;33.24;94859.97;5063270;28;20204;-75
2022/07/21 04:56:25;;;;;;;3.63;3.08;;;;;;;30.39;33.10;94856.91;5065960;28;20211;-75
2022/07/21 04:58:52;;;;;;;3.70;2.83;;;;;;;30.61;32.22;94859.03;5062956;28;20209;-75
2022/07/21 05:01:19;;;;;;;5.03;2.80;;;;;;;30.95;32.60;94861.81;5055164;28;20203;-76
2022/07/21 05:03:47;;;;;;;3.60;3.03;;;;;;;30.84;31.72;94869.81;5062706;28;20706;-76
2022/07/21 05:06:14;;;;;;;4.38;3.30;;;;;;;31.56;30.97;94857.59;5058885;28;20209;-75
2022/07/21 05:08:41;;;;;;;4.00;2.88;;;;;;;32.51;29.43;94863.47;5061427;28;20727;-77
2022/07/21 05:11:08;;;;;;;3.40;2.90;;;;;;;32.65;29.36;94856.50;5058234;28;20223;-76
2022/07/21 05:13:34;;;;;;;5.00;3.17;;;;;;;32.58;29.71;94857.56;5062268;28;20277;-76
2022/07/21 05:16:01;;;;;;;6.80;3.40;;;;;;;31.58;30.37;94857.91;5065951;28;20261;-76
2022/07/21 05:18:28;;;;;;;5.60;3.38;;;;;;;31.97;30.23;94858.47;5063459;28;20604;-76
2022/07/21 05:20:56;;;;;;;3.95;3.00;;;;;;;32.48;29.54;94850.38;5059115;28;20195;-75
2022/07/21 05:23:23;;;;;;;5.50;3.30;;;;;;;33.66;28.15;94860.84;5060703;28;20262;-76
2022/07/21 05:25:50;;;;;;;3.92;3.15;;;;;;;33.39;28.13;94847.63;5064817;28;20772;-75
2022/07/21 05:28:16;;;;;;;4.85;3.25;;;;;;;31.92;29.87;94856.25;5058318;28;20740;-77
2022/07/21 05:30:43;;;;;;;3.67;3.38;;;;;;;32.92;28.72;94864.19;5064370;28;20203;-79
2022/07/21 05:33:10;;;;;;;3.47;2.83;;;;;;;32.64;29.41;94852.13;5062986;28;20231;-78
2022/07/21 05:35:37;;;;;;;4.22;3.33;;;;;;;32.45;28.98;94854.09;5059122;28;20210;-78
2022/07/21 05:38:05;;;;;;;3.17;2.80;;;;;;;31.18;30.39;94865.41;5071154;28;20673;-79
2022/07/21 05:40:32;;;;;;;3.08;2.75;;;;;;;31.66;29.04;94861.25;5066538;28;20873;-79
2022/07/21 05:42:59;;;;;;;3.45;2.63;;;;;;;31.99;28.96;94867.94;5056971;28;20203;-78
2022/07/21 05:45:26;;;;;;;3.70;2.70;;;;;;;31.26;30.35;94870.31;5058270;28;20192;-80
2022/07/21 05:47:53;;;;;;;3.67;2.30;;;;;;;31.83;29.14;94870.22;5059248;28;20772;-78
2022/07/21 05:50:19;;;;;;;2.65;2.25;;;;;;;32.26;28.69;94858.88;5064283;28;20196;-78
2022/07/21 05:52:46;;;;;;;3.35;2.60;;;;;;;33.30;27.61;94855.31;5062925;28;20301;-77
2022/07/21 05:55:14;;;;;;;3.78;2.85;;;;;;;30.37;31.02;94864.97;5051769;28;20208;-79
2022/07/21 05:57:41;;;;;;;6.45;2.83;;;;;;;32.06;29.60;94855.69;5064180;28;20348;-78
2022/07/21 06:00:09;;;;;;;4.68;2.88;;;;;;;32.45;29.28;94860.50;5065039;28;20199;-78
2022/07/21 06:02:36;;;;;;;5.35;2.97;;;;;;;32.83;28.95;94856.50;5064422;28;20235;-80
2022/07/21 06:05:03;;;;;;;4.65;3.00;;;;;;;32.27;29.73;94860.44;5057862;28;20635;-79
2022/07/21 06:07:30;;;;;;;5.22;3.00;;;;;;;31.40;30.39;94866.22;5058054;28;20658;-82
2022/07/21 06:09:56;;;;;;;3.20;2.67;;;;;;;32.68;30.07;94861.94;5064356;28;20227;-79
2022/07/21 06:12:25;;;;;;;3.60;2.70;;;;;;;32.82;29.03;94847.31;5051010;28;20315;-82
2022/07/21 06:14:52;;;;;;;5.53;3.13;;;;;;;33.34;28.21;94855.94;5051300;28;20200;-79
2022/07/21 06:17:19;;;;;;;3.45;2.78;;;;;;;33.88;28.35;94855.81;5065051;28;20209;-79
2022/07/21 06:19:45;;;;;;;5.80;2.90;;;;;;;34.36;26.88;94844.69;5051635;28;20204;-79
2022/07/21 06:22:12;;;;;;;3.92;2.50;;;;;;;34.28;27.32;94854.75;5064010;28;20222;-80
2022/07/21 06:24:39;;;;;;;3.85;2.70;;;;;;;33.30;28.33;94855.31;5058867;28;20207;-79
2022/07/21 06:27:06;;;;;;;4.32;3.10;;;;;;;33.60;28.48;94856.34;5069890;28;20230;-79
2022/07/21 06:29:35;;;;;;;4.50;2.83;;;;;;;33.79;27.92;94847.41;5051501;28;20208;-80
2022/07/21 06:32:02;;;;;;;4.65;2.58;;;;;;;34.40;27.25;94845.28;5064752;28;20234;-82
2022/07/21 06:34:28;;;;;;;3.53;2.75;;;;;;;34.56;27.31;94842.06;5059443;28;20233;-79
2022/07/21 06:36:55;;;;;;;3.30;2.75;;;;;;;33.78;28.04;94845.06;5058462;28;20689;-80
2022/07/21 06:39:22;;;;;;;3.90;2.90;;;;;;;34.26;27.57;94845.97;5070678;28;20691;-80
2022/07/21 06:41:49;;;;;;;5.53;3.00;;;;;;;34.82;26.74;94830.34;5067886;28;20212;-77
2022/07/21 06:44:16;;;;;;;4.00;2.97;;;;;;;35.69;26.41;94823.28;5060225;28;20274;-77
2022/07/21 06:46:47;;;;;;;4.45;3.05;;;;;;;36.08;25.80;94837.28;5057271;28;20257;-79
2022/07/21 06:49:14;;;;;;;4.38;2.88;;;;;;;35.28;26.77;94833.56;5060692;28;20192;-80
2022/07/21 06:51:40;;;;;;;4.68;2.90;;;;;;;33.65;28.65;94842.41;5064210;28;20207;-78
2022/07/21 06:54:07;;;;;;;7.07;3.42;;;;;;;34.66;27.45;94836.38;5060831;28;20219;-78
2022/07/21 06:56:34;;;;;;;5.78;3.20;;;;;;;34.44;27.42;94834.63;5066404;28;20741;-79
2022/07/21 06:59:03;;;;;;;3.63;3.03;;;;;;;36.09;25.43;94830.34;5061485;28;20256;-79
2022/07/21 07:01:30;;;;;;;3.78;2.80;;;;;;;36.64;24.63;94828.34;5056648;28;20268;-78
2022/07/21 07:03:59;;;;;;;5.78;3.22;;;;;;;37.55;24.02;94831.00;5058937;28;20748;-80
2022/07/21 07:06:28;;;;;;;4.30;3.28;;;;;;;36.56;25.01;94815.16;5063452;28;20912;-79
2022/07/21 07:08:55;;;;;;;7.50;3.35;;;;;;;35.95;25.41;94823.47;5061877;28;20206;-79
2022/07/21 07:11:21;;;;;;;6.13;3.30;;;;;;;35.15;26.22;94822.53;5056345;28;20207;-79
2022/07/21 07:13:48;;;;;;;6.90;3.33;;;;;;;35.83;25.73;94825.34;5058277;28;20701;-79
2022/07/21 07:16:15;;;;;;;7.80;3.85;;;;;;;35.58;26.30;94823.09;5063969;28;20261;-81
2022/07/21 07:18:42;;;;;;;4.75;2.83;;;;;;;36.73;25.47;94818.25;5062308;28;20203;-79
2022/07/21 07:21:10;;;;;;;3.17;2.47;;;;;;;34.82;27.71;94819.88;5051841;28;20211;-78
2022/07/21 07:23:37;;;;;;;6.85;2.80;;;;;;;35.81;25.56;94819.41;5062575;28;20199;-78
2022/07/21 07:26:04;;;;;;;3.38;2.38;;;;;;;35.72;25.29;94821.53;5050725;28;20254;-78
2022/07/21 07:28:31;;;;;;;4.28;2.60;;;;;;;34.40;27.16;94822.00;5063154;28;20268;-84
2022/07/21 07:30:57;;;;;;;5.65;3.10;;;;;;;35.01;27.23;94814.84;5056679;28;20219;-79
2022/07/21 07:33:25;;;;;;;4.70;2.45;;;;;;;34.52;27.01;94818.16;5060849;28;20364;-76
2022/07/21 07:35:52;;;;;;;4.82;3.05;;;;;;;33.37;28.92;94821.25;5069714;28;20613;-76
2022/07/21 07:38:20;;;;;;;5.22;2.38;;;;;;;33.93;28.48;94805.81;5057542;28;20269;-79
2022/07/21 07:40:47;;;;;;;3.67;2.50;;;;;;;34.15;28.53;94817.59;5069430;28;20230;-82
2022/07/21 07:43:14;;;;;;;3.15;2.55;;;;;;;33.82;28.52;94807.09;5062968;28;20210;-81
2022/07/21 07:45:41;;;;;;;4.05;2.42;;;;;;;34.78;27.63;94793.16;5068887;28;20202;-78
2022/07/21 07:48:08;;;;;;;2.92;2.00;;;;;;;33.32;29.04;94808.63;5057103;28;20261;-80
2022/07/21 07:50:34;;;;;;;3.15;2.55;;;;;;;32.04;31.85;94807.69;5068593;28;20662;-79
2022/07/21 07:53:01;;;;;;;5.07;2.63;;;;;;;32.74;31.19;94800.38;5057919;28;20231;-77
2022/07/21 07:55:30;;;;;;;4.25;2.80;;;;;;;31.56;32.39;94801.59;5068762;28;20200;-76
2022/07/21 07:57:56;;;;;;;4.40;2.75;;;;;;;30.33;34.65;94805.59;5058559;28;20207;-78
2022/07/21 08:00:23;;;;;;;6.75;2.70;;;;;;;30.49;33.24;94804.66;5067825;28;20230;-83
2022/07/21 08:02:50;;;;;;;3.08;2.05;;;;;;;31.35;32.48;94796.78;5070202;28;20279;-77
2022/07/21 08:05:17;;;;;;;3.33;2.40;;;;;;;30.77;31.79;94791.69;5065776;28;20203;-77
2022/07/21 08:07:44;;;;;;;2.70;2.10;;;;;;;30.60;32.09;94793.13;5063232;28;20203;-78
2022/07/21 08:10:13;;;;;;;2.95;2.10;;;;;;;31.29;32.05;94793.03;5067776;28;20230;-78
2022/07/21 08:12:41;;;;;;;2.35;2.15;;;;;;;31.55;31.37;94788.81;5059250;28;20234;-77
2022/07/21 08:15:09;;;;;;;2.33;1.92;;;;;;;31.24;31.61;94790.81;5066472;28;20253;-78
2022/07/21 08:17:36;;;;;;;4.22;2.20;;;;;;;31.13;32.18;94801.63;5069916;28;20311;-81
2022/07/21 08:20:05;;;;;;;2.53;1.85;;;;;;;30.62;32.03;94779.47;5067038;28;20761;-77
2022/07/21 08:22:32;;;;;;;2.78;2.10;;;;;;;30.92;32.86;94781.56;5063114;28;20206;-79
2022/07/21 08:24:59;;;;;;;5.53;2.42;;;;;;;31.52;31.94;94772.91;5065479;28;20226;-79
2022/07/21 08:27:34;;;;;;;2.95;2.20;;;;;;;31.67;32.41;94779.56;5069308;28;20200;-82
2022/07/21 08:30:03;;;;;;;2.97;2.38;;;;;;;30.87;32.49;94776.56;5068834;28;20222;-79
2022/07/21 08:32:30;;;;;;;3.47;1.98;;;;;;;31.36;32.41;94775.94;5062870;28;20280;-77
2022/07/21 08:34:57;;;;;;;5.00;2.20;;;;;;;31.65;32.56;94775.66;5063422;28;20199;-74
2022/07/21 08:37:24;;;;;;;2.38;2.00;;;;;;;30.84;31.58;94771.88;5075900;28;20720;-74
2022/07/21 08:39:51;;;;;;;2.35;2.08;;;;;;;31.03;33.27;94781.16;5062838;28;20196;-78
2022/07/21 08:42:17;;;;;;;4.03;1.90;;;;;;;31.57;30.74;94763.16;5061630;28;20344;-80
2022/07/21 08:44:45;;;;;;;2.70;2.15;;;;;;;30.97;30.55;94772.59;5067641;28;20203;-80
2022/07/21 08:47:13;;;;;;;2.30;1.90;;;;;;;31.01;31.17;94784.44;5093620;28;20335;-82
2022/07/21 08:49:40;;;;;;;2.28;2.03;;;;;;;31.85;30.38;94758.41;5078384;28;20688;-78
2022/07/21 08:52:08;;;;;;;3.63;2.17;;;;;;;32.00;30.96;94762.19;5052713;28;20899;-79
2022/07/21 08:54:34;;;;;;;2.30;2.03;;;;;;;31.99;29.84;94760.63;5066041;28;20231;-78
2022/07/21 08:57:01;;;;;;;2.08;1.88;;;;;;;32.08;29.42;94757.88;5059619;28;20257;-78
2022/07/21 08:59:30;;;;;;;4.18;2.50;;;;;;;32.31;29.84;94762.13;5058598;28;20203;-79
2022/07/21 09:01:58;;;;;;;2.63;2.00;;;;;;;32.62;29.58;94745.97;5060386;28;20207;-79
2022/07/21 09:04:28;;;;;;;2.92;2.10;;;;;;;32.15;30.29;94746.34;5059696;28;20223;-79
2022/07/21 09:06:57;;;;;;;2.88;2.00;;;;;;;32.43;29.39;94753.59;5063989;28;20195;-76
2022/07/21 09:09:25;;;;;;;3.03;2.25;;;;;;;32.81;29.36;94746.75;5067974;28;20227;-78
2022/07/21 09:11:53;;;;;;;2.20;1.90;;;;;;;32.25;30.07;94744.38;5063332;28;20269;-77
2022/07/21 09:14:22;;;;;;;2.95;1.92;;;;;;;31.36;31.09;94748.72;5054852;28;20241;-78
2022/07/21 09:16:51;;;;;;;3.63;2.03;;;;;;;31.76;30.52;94743.16;5061676;28;20211;-79
2022/07/21 09:19:22;;;;;;;2.33;2.08;;;;;;;32.52;30.02;94735.22;5065859;28;20249;-78
2022/07/21 09:21:52;;;;;;;3.72;2.40;;;;;;;33.00;29.06;94737.06;5063382;28;20573;-78
2022/07/21 09:24:32;;;;;;;3.60;2.05;;;;;;;33.18;28.50;94734.22;5053617;28;20199;-79
2022/07/21 09:27:09;;;;;;;6.70;2.50;;;;;;;32.86;28.29;94742.53;5065580;28;20237;-78
2022/07/21 09:29:39;;;;;;;4.53;2.00;;;;;;;31.68;29.86;94736.28;5061306;28;20223;-77
2022/07/21 09:32:25;;;;;;;2.47;2.13;;;;;;;31.90;29.75;94738.19;5059017;28;20217;-79
2022/07/21 09:34:54;;;;;;;2.45;1.85;;;;;;;31.42;29.49;94738.50;5072520;28;20223;-77
2022/07/21 09:37:23;;;;;;;4.72;2.63;;;;;;;31.76;29.72;94734.75;5058910;28;20909;-78
2022/07/21 09:39:52;;;;;;;4.55;2.20;;;;;;;31.77;30.58;94730.69;5072208;28;20233;-77
2022/07/21 09:42:22;;;;;;;2.78;2.20;;;;;;;32.19;28.93;94723.81;5051871;28;20199;-79
2022/07/21 09:44:51;;;;;;;5.03;1.95;;;;;;;32.36;28.96;94734.28;5052648;28;20199;-78
2022/07/21 09:47:20;;;;;;;2.40;2.17;;;;;;;32.84;28.51;94723.34;5083165;28;20195;-78
2022/07/21 09:49:47;;;;;;;2.50;2.20;;;;;;;33.04;28.82;94720.84;5069836;28;20207;-78
2022/07/21 09:52:31;;;;;;;3.20;2.58;;;;;;;33.05;27.48;94721.59;5060583;28;20546;-79
2022/07/21 09:55:03;;;;;;;2.80;2.47;;;;;;;33.41;27.81;94729.94;5058103;28;20636;-77
2022/07/21 09:57:30;;;;;;;3.70;2.30;;;;;;;32.77;27.85;94729.28;5058421;28;20192;-76
2022/07/21 09:59:58;;;;;;;2.45;2.13;;;;;;;32.02;28.89;94728.88;5069871;28;20325;-82
2022/07/21 10:02:27;;;;;;;2.60;2.25;;;;;;;31.91;28.58;94723.72;5059765;28;20212;-80
2022/07/21 10:04:59;;;;;;;2.63;2.10;;;;;;;32.29;28.33;94723.34;5064719;28;20203;-81
2022/07/21 10:07:28;;;;;;;2.28;2.08;;;;;;;32.58;28.06;94722.09;5064891;28;20199;-79
2022/07/21 10:09:55;;;;;;;3.70;2.13;;;;;;;32.67;27.50;94708.06;5071189;28;20218;-80
2022/07/21 10:12:23;;;;;;;2.47;2.00;;;;;;;33.35;27.78;94712.16;5056970;28;20210;-82
2022/07/21 10:14:51;;;;;;;2.13;1.92;;;;;;;33.33;27.73;94708.28;5058184;28;20233;-82
2022/07/21 10:17:19;;;;;;;2.80;2.30;;;;;;;33.44;27.53;94708.56;5057866;28;20203;-79
2022/07/21 10:19:54;;;;;;;2.30;1.98;;;;;;;33.53;27.27;94706.47;5063538;28;20200;-79
2022/07/21 10:22:30;;;;;;;3.35;2.40;;;;;;;33.74;26.48;94704.69;5053366;28;20294;-79
2022/07/21 10:24:59;;;;;;;5.18;2.40;;;;;;;33.84;26.58;94700.59;5060830;28;20673;-80
2022/07/21 10:27:26;;;;;;;2.63;1.95;;;;;;;32.89;28.25;94711.50;5064862;28;20204;-76
2022/07/21 10:29:56;;;;;;;2.08;1.88;;;;;;;32.75;27.41;94703.72;5062070;28;20281;-80
2022/07/21 10:32:29;;;;;;;2.42;1.95;;;;;;;32.36;28.36;94703.41;5066579;28;20249;-74
2022/07/21 10:34:57;;;;;;;2.95;2.35;;;;;;;32.71;28.54;94701.03;5050872;28;20222;-79
2022/07/21 10:37:49;;;;;;;2.05;1.85;;;;;;;32.42;28.08;94701.53;5070205;28;20207;-79
2022/07/21 10:40:41;;;;;;;2.53;2.03;;;;;;;32.18;29.04;94699.78;5067508;28;20585;-82
2022/07/21 10:43:40;;;;;;;2.83;2.13;;;;;;;31.87;28.23;94697.88;5056272;28;20245;-77
2022/07/21 10:46:36;;;;;;;2.20;1.80;;;;;;;31.79;28.46;94691.00;5070597;28;20226;-77
2022/07/21 10:49:05;;;;;;;2.45;2.05;;;;;;;32.39;28.70;94677.22;5059365;28;20235;-81
2022/07/21 10:51:33;;;;;;;2.40;2.10;;;;;;;32.34;28.77;94685.50;5057505;28;20214;-77
2022/07/21 10:54:24;;;;;;;3.05;2.20;;;;;;;32.29;28.42;94681.28;5061168;28;20270;-75
2022/07/21 10:57:24;;;;;;;1.88;1.77;;;;;;;32.79;29.47;94687.50;5064388;28;20655;-78
2022/07/21 11:00:19;;;;;;;3.30;2.08;;;;;;;31.99;28.84;94670.94;5063822;28;20220;-77
2022/07/21 11:02:49;;;;;;;2.95;2.10;;;;;;;32.28;28.60;94676.91;5064298;28;20290;-76
2022/07/21 11:05:16;;;;;;;3.05;2.22;;;;;;;31.93;29.18;94668.00;5059305;28;20202;-76
2022/07/21 11:08:17;;;;;;;4.10;2.33;;;;;;;31.37;29.04;94665.50;5056542;28;20230;-78
2022/07/21 11:10:45;;;;;;;2.20;2.00;;;;;;;32.17;28.86;94665.34;5057086;28;20207;-77
2022/07/21 11:13:14;;;;;;;3.45;2.30;;;;;;;32.17;29.44;94659.75;5062902;28;20624;-80
2022/07/21 11:15:55;;;;;;;2.67;2.17;;;;;;;32.47;27.96;94653.22;5063883;28;20210;-76
2022/07/21 11:18:24;;;;;;;2.58;2.25;;;;;;;32.73;28.59;94655.72;5060388;28;20304;-76
2022/07/21 11:21:08;;;;;;;3.15;2.00;;;;;;;32.14;28.19;94655.06;5056765;28;20669;-78
2022/07/21 11:23:42;;;;;;;4.45;2.13;;;;;;;32.10;28.02;94654.47;5057640;28;20333;-78
2022/07/21 11:26:11;;;;;;;2.83;2.13;;;;;;;32.54;28.28;94654.13;5050227;28;20227;-77
2022/07/21 11:28:38;;;;;;;3.10;2.25;;;;;;;32.89;28.38;94651.78;5049835;28;20311;-77
2022/07/21 11:31:16;;;;;;;3.90;1.88;;;;;;;33.30;27.38;94641.81;5050322;28;21099;-80
2022/07/21 11:33:45;;;;;;;3.15;2.00;;;;;;;33.32;26.60;94644.94;5049829;28;20755;-80
2022/07/21 11:36:27;;;;;;;3.65;2.50;;;;;;;33.40;26.29;94637.72;5049953;28;20214;-78
2022/07/21 11:38:58;;;;;;;2.13;1.63;;;;;;;33.68;26.09;94633.50;5068476;28;20221;-81
2022/07/21 11:41:25;;;;;;;4.25;2.28;;;;;;;33.93;26.22;94634.28;5069643;28;20564;-78
2022/07/21 11:43:52;;;;;;;2.58;2.17;;;;;;;33.68;27.00;94636.31;5061596;28;20207;-81